createdAt,value
2023-05-03T00:00:17.404Z,96976.00
2023-05-03T00:01:49.000Z,96984.84
2023-05-03T00:03:23.746Z,96974.19
2023-05-03T00:04:57.203Z,96983.75
2023-05-03T00:06:28.833Z,96974.53
2023-05-03T00:08:00.945Z,96967.97
2023-05-03T00:09:35.742Z,96972.69
2023-05-03T00:11:07.969Z,96967.47
2023-05-03T00:12:40.543Z,96963.09
2023-05-03T00:14:12.182Z,96970.09
2023-05-03T00:15:43.730Z,96966.03
2023-05-03T00:17:15.352Z,96969.47
2023-05-03T00:18:49.092Z,96968.84
2023-05-03T00:20:21.288Z,96968.53
2023-05-03T00:21:53.062Z,96974.03
2023-05-03T00:23:24.717Z,96967.78
2023-05-03T00:24:58.787Z,96971.72
2023-05-03T00:26:30.362Z,96963.94
2023-05-03T00:28:01.989Z,96960.00
2023-05-03T00:29:33.607Z,96962.94
2023-05-03T00:31:08.641Z,96963.72
2023-05-03T00:32:40.315Z,96960.13
2023-05-03T00:34:11.934Z,96957.31
2023-05-03T00:35:43.565Z,96954.53
2023-05-03T00:37:15.139Z,96957.66
2023-05-03T00:38:46.779Z,96955.25
2023-05-03T00:40:19.978Z,96961.22
2023-05-03T00:41:56.623Z,96961.06
2023-05-03T00:43:28.225Z,96955.88
2023-05-03T00:44:59.811Z,96954.94
2023-05-03T00:46:31.398Z,96948.56
2023-05-03T00:48:03.153Z,96951.22
2023-05-03T00:49:34.757Z,96945.22
2023-05-03T00:51:06.897Z,96950.41
2023-05-03T00:52:38.579Z,96944.81
2023-05-03T00:54:10.255Z,96956.56
2023-05-03T00:55:43.533Z,96957.16
2023-05-03T00:57:15.143Z,96959.97
2023-05-03T00:58:46.793Z,96957.19
2023-05-03T01:00:19.254Z,96959.50
2023-05-03T01:01:51.447Z,96955.63
2023-05-03T01:03:23.852Z,96953.13
2023-05-03T01:04:55.615Z,96960.78
2023-05-03T01:06:32.919Z,96954.09
2023-05-03T01:08:08.186Z,96954.88
2023-05-03T01:09:43.429Z,96956.41
2023-05-03T01:11:19.229Z,96951.56
2023-05-03T01:12:55.301Z,96944.72
2023-05-03T01:14:30.259Z,96948.66
2023-05-03T01:16:06.467Z,96944.44
2023-05-03T01:17:39.949Z,96947.69
2023-05-03T01:19:15.613Z,96946.16
2023-05-03T01:20:48.302Z,96952.38
2023-05-03T01:22:23.048Z,96940.19
2023-05-03T01:23:56.924Z,96945.16
2023-05-03T01:25:30.120Z,96939.06
2023-05-03T01:27:01.696Z,96946.72
2023-05-03T01:28:33.286Z,96937.34
2023-05-03T01:30:05.962Z,96938.28
2023-05-03T01:31:39.281Z,96939.69
2023-05-03T01:33:13.020Z,96940.63
2023-05-03T01:34:47.724Z,96943.00
2023-05-03T01:36:21.396Z,96942.34
2023-05-03T01:37:53.037Z,96948.00
2023-05-03T01:39:27.295Z,96948.81
2023-05-03T01:41:01.654Z,96942.38
2023-05-03T01:42:33.904Z,96945.38
2023-05-03T01:44:05.605Z,96949.56
2023-05-03T01:45:37.224Z,96948.63
2023-05-03T01:47:08.912Z,96957.72
2023-05-03T01:48:40.566Z,96953.69
2023-05-03T01:50:12.295Z,96958.41
2023-05-03T01:51:43.861Z,96959.06
2023-05-03T01:53:15.497Z,96955.81
2023-05-03T01:54:47.178Z,96944.09
2023-05-03T01:56:20.161Z,96947.22
2023-05-03T01:57:51.764Z,96948.94
2023-05-03T01:59:23.343Z,96956.28
2023-05-03T02:00:54.987Z,96956.59
2023-05-03T02:02:26.710Z,96957.09
2023-05-03T02:03:58.400Z,96960.06
2023-05-03T02:05:30.059Z,96952.41
2023-05-03T02:07:01.793Z,96964.09
2023-05-03T02:08:33.429Z,96961.78
2023-05-03T02:10:05.844Z,96954.91
2023-05-03T02:11:39.028Z,96956.16
2023-05-03T02:13:10.674Z,96958.34
2023-05-03T02:14:42.408Z,96952.84
2023-05-03T02:16:14.046Z,96966.16
2023-05-03T02:17:47.250Z,96963.19
2023-05-03T02:19:19.093Z,96964.75
2023-05-03T02:20:50.870Z,96966.59
2023-05-03T02:22:23.395Z,96966.63
2023-05-03T02:23:55.044Z,96963.81
2023-05-03T02:25:27.700Z,96968.63
2023-05-03T02:27:04.333Z,96970.53
2023-05-03T02:28:36.087Z,96966.94
2023-05-03T02:30:08.848Z,96967.06
2023-05-03T02:31:40.576Z,96964.22
2023-05-03T02:33:12.282Z,96964.06
2023-05-03T02:34:44.270Z,96962.69
2023-05-03T02:36:15.862Z,96957.56
2023-05-03T02:37:47.463Z,96961.47
2023-05-03T02:39:19.239Z,96953.78
2023-05-03T02:40:50.837Z,96959.75
2023-05-03T02:42:24.036Z,96951.00
2023-05-03T02:43:55.664Z,96954.09
2023-05-03T02:45:27.334Z,96954.41
2023-05-03T02:46:58.931Z,96953.94
2023-05-03T02:48:30.543Z,96955.47
2023-05-03T02:50:02.352Z,96958.00
2023-05-03T02:51:34.136Z,96958.31
2023-05-03T02:53:05.971Z,96950.50
2023-05-03T02:54:37.626Z,96945.91
2023-05-03T02:56:09.843Z,96951.72
2023-05-03T02:57:43.051Z,96952.00
2023-05-03T02:59:14.621Z,96956.13
2023-05-03T03:00:46.381Z,96956.59
2023-05-03T03:02:17.978Z,96952.22
2023-05-03T03:03:49.664Z,96962.06
2023-05-03T03:05:21.502Z,96954.06
2023-05-03T03:06:56.771Z,96956.44
2023-05-03T03:08:28.417Z,96949.69
2023-05-03T03:10:01.032Z,96955.31
2023-05-03T03:11:32.871Z,96949.19
2023-05-03T03:13:05.854Z,96949.66
2023-05-03T03:14:37.504Z,96953.56
2023-05-03T03:16:09.654Z,96955.75
2023-05-03T03:17:41.456Z,96941.53
2023-05-03T03:19:13.791Z,96951.06
2023-05-03T03:20:45.400Z,96951.22
2023-05-03T03:22:17.188Z,96949.66
2023-05-03T03:23:48.770Z,96950.91
2023-05-03T03:25:20.896Z,96951.13
2023-05-03T03:26:52.544Z,96950.66
2023-05-03T03:28:25.505Z,96950.50
2023-05-03T03:29:57.191Z,96949.53
2023-05-03T03:31:28.827Z,96952.31
2023-05-03T03:33:00.520Z,96952.47
2023-05-03T03:34:32.348Z,96939.03
2023-05-03T03:36:06.570Z,96948.56
2023-05-03T03:37:38.950Z,96943.09
2023-05-03T03:39:10.629Z,96940.75
2023-05-03T03:40:42.262Z,96942.63
2023-05-03T03:42:14.851Z,96944.81
2023-05-03T03:43:47.777Z,96946.69
2023-05-03T03:45:19.347Z,96941.56
2023-05-03T03:46:51.002Z,96947.94
2023-05-03T03:48:22.759Z,96938.34
2023-05-03T03:49:54.411Z,96937.47
2023-05-03T03:51:26.837Z,96945.13
2023-05-03T03:52:58.449Z,96950.78
2023-05-03T03:54:30.107Z,96945.75
2023-05-03T03:56:01.862Z,96948.69
2023-05-03T03:57:33.526Z,96946.66
2023-05-03T03:59:06.516Z,96957.44
2023-05-03T04:00:38.157Z,96955.44
2023-05-03T04:02:09.792Z,96959.66
2023-05-03T04:03:41.599Z,96959.94
2023-05-03T04:05:13.499Z,96962.28
2023-05-03T04:06:45.242Z,96953.94
2023-05-03T04:08:16.876Z,96960.53
2023-05-03T04:09:48.746Z,96963.53
2023-05-03T04:11:21.522Z,96955.91
2023-05-03T04:12:56.241Z,96956.34
2023-05-03T04:14:29.237Z,96959.19
2023-05-03T04:16:02.518Z,96958.72
2023-05-03T04:17:35.264Z,96965.91
2023-05-03T04:19:07.090Z,96962.97
2023-05-03T04:20:38.798Z,96965.75
2023-05-03T04:22:10.602Z,96959.50
2023-05-03T04:23:42.368Z,96971.81
2023-05-03T04:25:19.808Z,96970.84
2023-05-03T04:26:51.623Z,96971.78
2023-05-03T04:28:23.248Z,96969.94
2023-05-03T04:29:56.426Z,96965.38
2023-05-03T04:31:28.329Z,96967.13
2023-05-03T04:33:01.354Z,96969.78
2023-05-03T04:34:32.952Z,96974.81
2023-05-03T04:36:06.213Z,96966.72
2023-05-03T04:37:38.139Z,96959.22
2023-05-03T04:39:11.992Z,96975.78
2023-05-03T04:40:43.620Z,96968.91
2023-05-03T04:42:16.058Z,96969.38
2023-05-03T04:43:47.687Z,96970.31
2023-05-03T04:45:21.072Z,96975.00
2023-05-03T04:46:52.743Z,96968.31
2023-05-03T04:48:24.422Z,96970.00
2023-05-03T04:49:56.024Z,96975.31
2023-05-03T04:51:28.460Z,96974.88
2023-05-03T04:53:00.126Z,96977.34
2023-05-03T04:54:31.944Z,96978.91
2023-05-03T04:56:03.944Z,96979.69
2023-05-03T04:57:35.564Z,96970.63
2023-05-03T04:59:07.550Z,96972.22
2023-05-03T05:00:41.633Z,96968.28
2023-05-03T05:02:13.418Z,96980.00
2023-05-03T05:03:45.049Z,96975.16
2023-05-03T05:05:18.274Z,96975.81
2023-05-03T05:06:53.023Z,96981.91
2023-05-03T05:08:24.924Z,96980.03
2023-05-03T05:09:56.674Z,96978.94
2023-05-03T05:11:28.448Z,96982.03
2023-05-03T05:13:00.158Z,96981.56
2023-05-03T05:14:31.880Z,96977.66
2023-05-03T05:16:07.753Z,96982.19
2023-05-03T05:17:42.467Z,96987.69
2023-05-03T05:19:14.209Z,96986.25
2023-05-03T05:20:45.838Z,96985.03
2023-05-03T05:22:17.633Z,96982.56
2023-05-03T05:23:49.482Z,96989.06
2023-05-03T05:25:21.097Z,96991.56
2023-05-03T05:26:52.727Z,96990.84
2023-05-03T05:28:24.584Z,96998.81
2023-05-03T05:29:56.391Z,96997.25
2023-05-03T05:31:29.380Z,96998.34
2023-05-03T05:33:01.125Z,97002.72
2023-05-03T05:34:42.219Z,96999.75
2023-05-03T05:36:16.645Z,97008.50
2023-05-03T05:37:51.357Z,97009.13
2023-05-03T05:39:27.434Z,97006.47
2023-05-03T05:40:59.219Z,97016.94
2023-05-03T05:42:30.882Z,97011.94
2023-05-03T05:44:02.580Z,97018.84
2023-05-03T05:45:34.545Z,97016.00
2023-05-03T05:47:08.969Z,97017.13
2023-05-03T05:48:41.439Z,97024.16
2023-05-03T05:50:18.336Z,97020.56
2023-05-03T05:51:50.900Z,97017.75
2023-05-03T05:53:22.562Z,97015.06
2023-05-03T05:54:54.201Z,97012.88
2023-05-03T05:56:26.501Z,97012.91
2023-05-03T05:57:58.181Z,97017.09
2023-05-03T05:59:31.393Z,97016.16
2023-05-03T06:01:03.733Z,97013.19
2023-05-03T06:02:36.906Z,97015.88
2023-05-03T06:04:08.710Z,97012.56
2023-05-03T06:05:40.748Z,97016.63
2023-05-03T06:07:12.726Z,97016.00
2023-05-03T06:08:44.376Z,97017.72
2023-05-03T06:10:16.204Z,97018.50
2023-05-03T06:11:47.844Z,97018.03
2023-05-03T06:13:19.514Z,97025.06
2023-05-03T06:15:01.943Z,97020.53
2023-05-03T06:16:34.960Z,97022.88
2023-05-03T06:18:12.348Z,97019.72
2023-05-03T06:19:45.151Z,97021.44
2023-05-03T06:21:16.980Z,97027.53
2023-05-03T06:22:48.617Z,97027.66
2023-05-03T06:24:21.390Z,97022.53
2023-05-03T06:25:53.323Z,97024.88
2023-05-03T06:27:25.005Z,97033.78
2023-05-03T06:28:57.144Z,97027.53
2023-05-03T06:30:28.817Z,97027.84
2023-05-03T06:32:01.440Z,97020.31
2023-05-03T06:33:34.628Z,97030.34
2023-05-03T06:35:07.697Z,97026.88
2023-05-03T06:36:39.379Z,97020.16
2023-05-03T06:38:12.083Z,97017.97
2023-05-03T06:39:43.748Z,97025.47
2023-05-03T06:41:15.426Z,97017.03
2023-05-03T06:42:47.131Z,97021.25
2023-05-03T06:44:18.759Z,97026.25
2023-05-03T06:45:51.163Z,97020.09
2023-05-03T06:47:23.001Z,97023.31
2023-05-03T06:48:57.476Z,97023.00
2023-05-03T06:50:29.145Z,97018.84
2023-05-03T06:52:00.843Z,97028.09
2023-05-03T06:53:32.478Z,97019.25
2023-05-03T06:55:04.911Z,97016.97
2023-05-03T06:56:36.638Z,97020.03
2023-05-03T06:58:11.560Z,97019.91
2023-05-03T06:59:43.333Z,97023.00
2023-05-03T07:01:15.285Z,97025.28
2023-05-03T07:02:47.090Z,97013.88
2023-05-03T07:04:20.326Z,97011.41
2023-05-03T07:05:52.028Z,97012.75
2023-05-03T07:07:23.744Z,97009.84
2023-05-03T07:08:55.440Z,97009.06
2023-05-03T07:10:31.379Z,97007.75
2023-05-03T07:12:03.521Z,97014.84
2023-05-03T07:13:35.111Z,97015.44
2023-05-03T07:15:07.642Z,97005.25
2023-05-03T07:16:39.288Z,97007.91
2023-05-03T07:18:10.969Z,97008.81
2023-05-03T07:19:44.046Z,97005.81
2023-05-03T07:21:15.721Z,97002.38
2023-05-03T07:22:47.464Z,97001.50
2023-05-03T07:24:19.150Z,96996.19
2023-05-03T07:25:50.758Z,97003.66
2023-05-03T07:27:22.682Z,97000.44
2023-05-03T07:28:54.339Z,97002.16
2023-05-03T07:30:26.023Z,96999.53
2023-05-03T07:31:57.869Z,97000.78
2023-05-03T07:33:29.640Z,97000.91
2023-05-03T07:35:03.762Z,96998.75
2023-05-03T07:36:35.420Z,96997.91
2023-05-03T07:38:07.038Z,96990.97
2023-05-03T07:39:39.206Z,96995.88
2023-05-03T07:41:10.843Z,96986.56
2023-05-03T07:42:42.439Z,96983.88
2023-05-03T07:44:13.993Z,96987.53
2023-05-03T07:45:45.592Z,96994.69
2023-05-03T07:47:17.489Z,96987.13
2023-05-03T07:48:49.119Z,96985.09
2023-05-03T07:50:22.087Z,96982.38
2023-05-03T07:51:53.705Z,96981.25
2023-05-03T07:53:25.732Z,96983.72
2023-05-03T07:54:57.312Z,96973.69
2023-05-03T07:56:29.061Z,96972.94
2023-05-03T07:58:01.143Z,96976.47
2023-05-03T07:59:32.792Z,96983.03
2023-05-03T08:01:04.607Z,96980.66
2023-05-03T08:02:36.452Z,96972.44
2023-05-03T08:04:08.622Z,96966.53
2023-05-03T08:05:42.132Z,96970.84
2023-05-03T08:07:13.886Z,96963.59
2023-05-03T08:08:45.490Z,96974.09
2023-05-03T08:10:17.339Z,96970.06
2023-05-03T08:11:49.000Z,96968.94
2023-05-03T08:13:22.678Z,96963.75
2023-05-03T08:14:54.901Z,96962.13
2023-05-03T08:16:26.968Z,96961.00
2023-05-03T08:17:59.364Z,96954.00
2023-05-03T08:19:31.061Z,96948.88
2023-05-03T08:21:08.118Z,96946.66
2023-05-03T08:22:40.549Z,96944.19
2023-05-03T08:24:15.485Z,96952.13
2023-05-03T08:25:47.799Z,96944.66
2023-05-03T08:27:19.561Z,96946.47
2023-05-03T08:28:54.139Z,96952.69
2023-05-03T08:30:26.738Z,96944.94
2023-05-03T08:31:59.128Z,96946.59
2023-05-03T08:33:30.933Z,96939.91
2023-05-03T08:35:07.038Z,96946.72
2023-05-03T08:36:40.155Z,96938.47
2023-05-03T08:38:12.041Z,96946.41
2023-05-03T08:39:43.795Z,96943.81
2023-05-03T08:41:19.287Z,96939.66
2023-05-03T08:42:51.104Z,96946.28
2023-05-03T08:44:23.445Z,96937.94
2023-05-03T08:45:55.193Z,96935.69
2023-05-03T08:47:27.432Z,96929.28
2023-05-03T08:48:59.352Z,96934.75
2023-05-03T08:50:31.020Z,96929.91
2023-05-03T08:52:04.435Z,96937.84
2023-05-03T08:53:38.144Z,96945.34
2023-05-03T08:55:10.372Z,96941.63
2023-05-03T08:56:42.787Z,96948.66
2023-05-03T08:58:14.509Z,96936.56
2023-05-03T08:59:47.682Z,96944.03
2023-05-03T09:01:20.357Z,96941.66
2023-05-03T09:02:52.215Z,96949.25
2023-05-03T09:04:32.707Z,96955.44
2023-05-03T09:06:05.369Z,96951.06
2023-05-03T09:07:38.384Z,96948.31
2023-05-03T09:09:10.396Z,96946.00
2023-05-03T09:10:42.591Z,96945.09
2023-05-03T09:12:33.069Z,96936.03
2023-05-03T09:14:09.063Z,96940.28
2023-05-03T09:15:41.115Z,96946.16
2023-05-03T09:17:16.591Z,96948.78
2023-05-03T09:18:56.704Z,96948.09
2023-05-03T09:20:33.988Z,96950.00
2023-05-03T09:22:06.443Z,96951.69
2023-05-03T09:23:39.398Z,96946.59
2023-05-03T09:25:12.172Z,96943.78
2023-05-03T09:26:43.872Z,96945.84
2023-05-03T09:28:15.827Z,96944.00
2023-05-03T09:29:47.636Z,96944.88
2023-05-03T09:31:19.343Z,96949.59
2023-05-03T09:32:52.058Z,96943.25
2023-05-03T09:34:23.880Z,96946.56
2023-05-03T09:35:56.224Z,96933.72
2023-05-03T09:37:36.038Z,96944.28
2023-05-03T09:39:16.362Z,96938.72
2023-05-03T09:40:50.435Z,96933.25
2023-05-03T09:42:22.480Z,96941.84
2023-05-03T09:43:56.127Z,96937.47
2023-05-03T09:45:27.914Z,96937.13
2023-05-03T09:47:08.410Z,96927.63
2023-05-03T09:48:40.565Z,96926.59
2023-05-03T09:50:12.690Z,96921.88
2023-05-03T09:51:44.377Z,96922.38
2023-05-03T09:53:19.864Z,96921.38
2023-05-03T09:54:54.784Z,96922.81
2023-05-03T09:56:28.869Z,96919.41
2023-05-03T09:58:00.857Z,96923.75
2023-05-03T09:59:32.924Z,96926.09
2023-05-03T10:01:04.952Z,96928.03
2023-05-03T10:02:36.815Z,96919.28
2023-05-03T10:04:08.627Z,96920.47
2023-05-03T10:05:44.344Z,96919.84
2023-05-03T10:07:17.850Z,96922.09
2023-05-03T10:08:53.044Z,96921.16
2023-05-03T10:10:26.157Z,96920.53
2023-05-03T10:11:59.461Z,96922.16
2023-05-03T10:13:31.270Z,96925.78
2023-05-03T10:15:03.476Z,96922.94
2023-05-03T10:16:37.401Z,96911.47
2023-05-03T10:18:09.916Z,96914.69
2023-05-03T10:19:46.271Z,96913.81
2023-05-03T10:21:21.873Z,96910.22
2023-05-03T10:23:12.445Z,96914.91
2023-05-03T10:25:08.206Z,96914.75
2023-05-03T10:26:51.177Z,96913.47
2023-05-03T10:28:22.866Z,96918.56
2023-05-03T10:29:54.556Z,96913.41
2023-05-03T10:31:48.383Z,96917.72
2023-05-03T10:33:30.043Z,96911.13
2023-05-03T10:35:04.334Z,96912.19
2023-05-03T10:36:48.754Z,96909.47
2023-05-03T10:38:22.516Z,96906.22
2023-05-03T10:39:57.927Z,96905.84
2023-05-03T10:41:33.219Z,96902.75
2023-05-03T10:43:06.298Z,96902.66
2023-05-03T10:44:39.344Z,96903.41
2023-05-03T10:46:30.471Z,96897.75
2023-05-03T10:48:26.605Z,96900.56
2023-05-03T10:50:25.998Z,96906.41
2023-05-03T10:51:58.757Z,96902.81
2023-05-03T10:53:38.378Z,96901.34
2023-05-03T10:55:10.610Z,96903.28
2023-05-03T10:56:52.781Z,96893.75
2023-05-03T10:58:26.071Z,96896.09
2023-05-03T10:59:57.956Z,96896.06
2023-05-03T11:01:29.622Z,96894.19
2023-05-03T11:03:13.582Z,96902.53
2023-05-03T11:04:45.824Z,96899.50
2023-05-03T11:06:33.251Z,96896.16
2023-05-03T11:08:09.410Z,96898.47
2023-05-03T11:09:41.819Z,96893.72
2023-05-03T11:11:13.607Z,96907.84
2023-05-03T11:12:45.339Z,96893.03
2023-05-03T11:14:18.458Z,96893.22
2023-05-03T11:15:50.092Z,96900.88
2023-05-03T11:17:22.488Z,96903.88
2023-05-03T11:18:54.218Z,96889.72
2023-05-03T11:20:26.008Z,96898.72
2023-05-03T11:21:58.065Z,96891.41
2023-05-03T11:23:32.589Z,96892.56
2023-05-03T11:25:05.089Z,96882.47
2023-05-03T11:26:39.012Z,96881.78
2023-05-03T11:28:10.731Z,96884.13
2023-05-03T11:29:48.437Z,96883.72
2023-05-03T11:31:20.356Z,96882.16
2023-05-03T11:32:52.317Z,96885.00
2023-05-03T11:34:26.500Z,96884.06
2023-05-03T11:35:59.991Z,96887.66
2023-05-03T11:37:32.204Z,96885.53
2023-05-03T11:39:05.943Z,96874.88
2023-05-03T11:40:42.742Z,96881.81
2023-05-03T11:42:14.454Z,96877.25
2023-05-03T11:43:47.084Z,96885.94
2023-05-03T11:45:23.357Z,96880.22
2023-05-03T11:46:55.144Z,96887.56
2023-05-03T11:48:27.876Z,96878.72
2023-05-03T11:49:59.821Z,96880.44
2023-05-03T11:51:31.815Z,96885.88
2023-05-03T11:53:04.395Z,96878.91
2023-05-03T11:54:36.431Z,96888.94
2023-05-03T11:56:09.110Z,96883.47
2023-05-03T11:57:42.160Z,96883.53
2023-05-03T11:59:14.008Z,96884.31
2023-05-03T12:00:50.890Z,96883.16
2023-05-03T12:02:25.813Z,96881.97
2023-05-03T12:03:59.081Z,96880.06
2023-05-03T12:05:31.227Z,96868.88
2023-05-03T12:07:04.718Z,96871.97
2023-05-03T12:08:42.622Z,96874.66
2023-05-03T12:10:21.904Z,96868.09
2023-05-03T12:11:58.307Z,96870.81
2023-05-03T12:13:34.238Z,96877.34
2023-05-03T12:15:08.415Z,96864.22
2023-05-03T12:16:50.450Z,96865.78
2023-05-03T12:18:22.984Z,96875.84
2023-05-03T12:20:51.122Z,96868.50
2023-05-03T12:22:23.536Z,96861.91
2023-05-03T12:23:57.688Z,96858.03
2023-05-03T12:25:33.631Z,96867.31
2023-05-03T12:27:08.629Z,96860.38
2023-05-03T12:28:40.872Z,96866.56
2023-05-03T12:30:17.512Z,96863.47
2023-05-03T12:31:51.877Z,96859.22
2023-05-03T12:33:23.989Z,96853.38
2023-05-03T12:34:56.886Z,96845.56
2023-05-03T12:36:31.637Z,96852.66
2023-05-03T12:38:07.023Z,96856.91
2023-05-03T12:39:45.769Z,96839.91
2023-05-03T12:41:52.154Z,96854.94
2023-05-03T12:43:11.752Z,96846.31
2023-05-03T12:44:47.126Z,96836.69
2023-05-03T12:46:33.802Z,96839.47
2023-05-03T12:48:10.563Z,96837.19
2023-05-03T12:49:46.048Z,96841.81
2023-05-03T12:51:21.372Z,96837.56
2023-05-03T12:52:59.361Z,96840.66
2023-05-03T12:54:34.423Z,96842.19
2023-05-03T12:56:07.032Z,96832.13
2023-05-03T12:57:39.047Z,96843.34
2023-05-03T12:59:35.399Z,96837.53
2023-05-03T13:01:47.089Z,96832.06
2023-05-03T13:06:13.246Z,96832.53
2023-05-03T13:07:53.585Z,96829.44
2023-05-03T13:09:37.691Z,96832.50
2023-05-03T13:11:20.280Z,96828.56
2023-05-03T13:12:53.876Z,96828.97
2023-05-03T13:14:25.779Z,96827.53
2023-05-03T13:16:01.273Z,96830.22
2023-05-03T13:17:36.210Z,96835.22
2023-05-03T13:19:08.086Z,96828.91
2023-05-03T13:20:41.346Z,96827.63
2023-05-03T13:22:13.554Z,96824.72
2023-05-03T13:23:48.457Z,96821.88
2023-05-03T13:25:20.117Z,96817.75
2023-05-03T13:26:52.046Z,96813.38
2023-05-03T13:28:25.011Z,96818.75
2023-05-03T13:29:56.898Z,96829.94
2023-05-03T13:31:30.140Z,96818.16
2023-05-03T13:33:01.989Z,96813.88
2023-05-03T13:34:33.779Z,96814.59
2023-05-03T13:36:07.704Z,96808.81
2023-05-03T13:37:39.600Z,96809.81
2023-05-03T13:39:11.307Z,96808.31
2023-05-03T13:40:42.993Z,96813.06
2023-05-03T13:42:14.787Z,96808.44
2023-05-03T13:43:46.965Z,96803.00
2023-05-03T13:45:19.089Z,96811.06
2023-05-03T13:46:50.909Z,96808.31
2023-05-03T13:48:23.547Z,96802.53
2023-05-03T13:49:56.397Z,96806.06
2023-05-03T13:51:29.494Z,96811.56
2023-05-03T13:53:01.108Z,96804.00
2023-05-03T13:54:32.861Z,96804.28
2023-05-03T13:56:05.865Z,96802.41
2023-05-03T13:57:37.542Z,96788.03
2023-05-03T13:59:11.849Z,96795.44
2023-05-03T14:00:45.967Z,96791.59
2023-05-03T14:02:17.752Z,96794.28
2023-05-03T14:03:50.322Z,96786.19
2023-05-03T14:05:22.226Z,96786.50
2023-05-03T14:06:55.345Z,96788.38
2023-05-03T14:08:27.091Z,96786.13
2023-05-03T14:09:58.821Z,96783.84
2023-05-03T14:11:30.784Z,96786.09
2023-05-03T14:13:02.923Z,96788.09
2023-05-03T14:14:35.068Z,96793.13
2023-05-03T14:16:07.357Z,96779.75
2023-05-03T14:17:39.144Z,96779.94
2023-05-03T14:19:11.456Z,96784.56
2023-05-03T14:20:43.530Z,96782.84
2023-05-03T14:22:16.569Z,96778.72
2023-05-03T14:23:49.989Z,96772.16
2023-05-03T14:25:22.020Z,96771.78
2023-05-03T14:26:53.788Z,96771.81
2023-05-03T14:28:25.459Z,96774.41
2023-05-03T14:29:57.308Z,96778.34
2023-05-03T14:31:29.130Z,96771.50
2023-05-03T14:33:00.954Z,96766.06
2023-05-03T14:34:32.682Z,96765.25
2023-05-03T14:36:07.111Z,96772.97
2023-05-03T14:37:40.134Z,96767.47
2023-05-03T14:39:14.565Z,96767.94
2023-05-03T14:40:49.138Z,96764.91
2023-05-03T14:42:20.893Z,96770.31
2023-05-03T14:43:52.811Z,96768.72
2023-05-03T14:45:24.683Z,96771.47
2023-05-03T14:46:59.251Z,96773.41
2023-05-03T14:48:31.067Z,96766.44
2023-05-03T14:50:03.158Z,96769.53
2023-05-03T14:51:38.385Z,96762.22
2023-05-03T14:53:11.936Z,96764.91
2023-05-03T14:54:43.754Z,96766.47
2023-05-03T14:56:15.659Z,96761.44
2023-05-03T14:57:47.412Z,96765.31
2023-05-03T14:59:19.228Z,96764.16
2023-05-03T15:00:51.039Z,96766.44
2023-05-03T15:02:23.026Z,96762.91
2023-05-03T15:03:54.743Z,96770.63
2023-05-03T15:05:26.975Z,96760.69
2023-05-03T15:06:59.989Z,96763.75
2023-05-03T15:08:33.144Z,96756.38
2023-05-03T15:10:06.264Z,96762.19
2023-05-03T15:11:38.191Z,96763.69
2023-05-03T15:13:10.256Z,96762.22
2023-05-03T15:14:42.506Z,96770.72
2023-05-03T15:16:14.185Z,96765.38
2023-05-03T15:17:46.533Z,96763.78
2023-05-03T15:19:18.169Z,96767.63
2023-05-03T15:20:49.735Z,96767.25
2023-05-03T15:22:21.388Z,96767.63
2023-05-03T15:23:54.410Z,96763.75
2023-05-03T15:25:26.965Z,96760.69
2023-05-03T15:27:00.763Z,96761.44
2023-05-03T15:28:32.720Z,96769.59
2023-05-03T15:30:05.392Z,96766.84
2023-05-03T15:31:38.103Z,96765.34
2023-05-03T15:33:11.989Z,96759.16
2023-05-03T15:34:43.776Z,96766.50
2023-05-03T15:36:16.771Z,96763.41
2023-05-03T15:37:48.498Z,96765.28
2023-05-03T15:39:22.162Z,96763.00
2023-05-03T15:40:53.810Z,96762.22
2023-05-03T15:42:26.973Z,96756.03
2023-05-03T15:43:59.626Z,96751.38
2023-05-03T15:45:31.631Z,96749.03
2023-05-03T15:47:03.854Z,96745.59
2023-05-03T15:48:37.343Z,96746.38
2023-05-03T15:50:09.853Z,96750.69
2023-05-03T15:51:41.931Z,96742.13
2023-05-03T15:53:14.074Z,96741.38
2023-05-03T15:54:47.662Z,96737.16
2023-05-03T15:56:20.561Z,96738.25
2023-05-03T15:57:53.582Z,96728.59
2023-05-03T15:59:28.868Z,96735.88
2023-05-03T16:01:02.082Z,96732.47
2023-05-03T16:02:34.024Z,96735.56
2023-05-03T16:04:07.685Z,96735.16
2023-05-03T16:05:39.356Z,96739.13
2023-05-03T16:07:11.328Z,96742.19
2023-05-03T16:08:42.914Z,96729.00
2023-05-03T16:10:16.963Z,96736.41
2023-05-03T16:11:48.911Z,96736.81
2023-05-03T16:13:20.712Z,96741.44
2023-05-03T16:14:52.387Z,96734.81
2023-05-03T16:16:24.347Z,96738.69
2023-05-03T16:17:56.447Z,96732.19
2023-05-03T16:19:28.118Z,96733.66
2023-05-03T16:21:00.924Z,96738.72
2023-05-03T16:22:32.661Z,96732.94
2023-05-03T16:24:04.843Z,96732.56
2023-05-03T16:25:39.195Z,96734.09
2023-05-03T16:27:10.874Z,96731.81
2023-05-03T16:28:42.581Z,96734.06
2023-05-03T16:30:14.370Z,96731.00
2023-05-03T16:31:47.203Z,96735.28
2023-05-03T16:33:19.523Z,96736.00
2023-05-03T16:34:51.991Z,96737.97
2023-05-03T16:36:23.777Z,96739.09
2023-05-03T16:37:56.469Z,96736.75
2023-05-03T16:39:28.158Z,96729.44
2023-05-03T16:41:04.502Z,96731.72
2023-05-03T16:42:36.375Z,96732.47
2023-05-03T16:44:08.612Z,96730.53
2023-05-03T16:45:40.654Z,96735.84
2023-05-03T16:47:12.359Z,96732.75
2023-05-03T16:48:44.218Z,96726.19
2023-05-03T16:50:16.796Z,96727.03
2023-05-03T16:51:48.551Z,96734.34
2023-05-03T16:53:20.749Z,96734.25
2023-05-03T16:54:53.725Z,96733.41
2023-05-03T16:56:27.036Z,96729.59
2023-05-03T16:58:00.910Z,96738.75
2023-05-03T16:59:32.947Z,96736.00
2023-05-03T17:01:04.944Z,96731.34
2023-05-03T17:02:36.815Z,96738.72
2023-05-03T17:04:08.703Z,96730.25
2023-05-03T17:05:41.111Z,96726.72
2023-05-03T17:07:12.691Z,96725.47
2023-05-03T17:08:44.463Z,96730.03
2023-05-03T17:10:16.574Z,96728.06
2023-05-03T17:11:49.530Z,96736.03
2023-05-03T17:13:21.239Z,96736.13
2023-05-03T17:14:52.960Z,96743.78
2023-05-03T17:16:26.701Z,96742.66
2023-05-03T17:18:04.326Z,96735.00
2023-05-03T17:19:36.283Z,96745.25
2023-05-03T17:21:07.997Z,96739.03
2023-05-03T17:22:39.681Z,96744.50
2023-05-03T17:24:14.204Z,96738.72
2023-05-03T17:25:45.991Z,96741.38
2023-05-03T17:27:21.627Z,96739.03
2023-05-03T17:28:53.393Z,96738.22
2023-05-03T17:30:25.522Z,96741.66
2023-05-03T17:31:58.368Z,96737.56
2023-05-03T17:33:30.136Z,96745.97
2023-05-03T17:35:01.863Z,96742.06
2023-05-03T17:36:33.862Z,96745.94
2023-05-03T17:38:08.315Z,96745.13
2023-05-03T17:39:41.186Z,96744.38
2023-05-03T17:41:12.876Z,96749.50
2023-05-03T17:42:47.110Z,96744.13
2023-05-03T17:44:18.889Z,96748.16
2023-05-03T17:45:50.581Z,96751.28
2023-05-03T17:47:22.983Z,96742.13
2023-05-03T17:48:55.357Z,96744.75
2023-05-03T17:50:27.028Z,96759.41
2023-05-03T17:51:58.616Z,96751.34
2023-05-03T17:53:30.372Z,96753.31
2023-05-03T17:55:02.751Z,96753.19
2023-05-03T17:56:34.513Z,96760.78
2023-05-03T17:58:09.415Z,96750.75
2023-05-03T17:59:41.015Z,96761.50
2023-05-03T18:01:13.550Z,96753.97
2023-05-03T18:02:45.469Z,96752.59
2023-05-03T18:04:17.111Z,96749.09
2023-05-03T18:05:49.196Z,96751.88
2023-05-03T18:07:21.126Z,96755.84
2023-05-03T18:08:53.066Z,96747.69
2023-05-03T18:10:25.234Z,96749.13
2023-05-03T18:11:58.273Z,96757.00
2023-05-03T18:13:33.058Z,96753.91
2023-05-03T18:15:06.189Z,96747.13
2023-05-03T18:16:37.896Z,96747.47
2023-05-03T18:18:09.671Z,96750.91